Time;durP1;ratioP1;P1;durP2;ratioP2;P2;SDS_P1;SDS_P2;PMS_P1;PMS_P2;Temp;Humidity;BMP_temperature;BMP_pressure;BME280_temperature;BME280_humidity;BME280_pressure;Samples;Min_cycle;Max_cycle;Signal;HPM_P1;HPM_P2
2023/04/25 00:01:45;;;;;;;;;;;;;;;22.98;36.88;97010.53;5072962;28;19931;-88
2023/04/25 00:04:11;;;;;;;;;;;;;;;23.44;35.82;97005.31;5066338;28;19920;-88
2023/04/25 00:06:37;;;;;;;;;;;;;;;22.99;38.00;97009.28;5071445;28;19921;-88
2023/04/25 00:09:07;;;;;;;;;;;;;;;22.77;38.10;97018.84;5065941;28;19917;-88
2023/04/25 00:11:33;;;;;;;;;;;;;;;24.08;34.52;97003.75;5070378;28;19920;-89
2023/04/25 00:14:01;;;;;;;;;;;;;;;23.22;36.58;97016.50;5065465;28;19916;-89
2023/04/25 00:16:29;;;;;;;;;;;;;;;23.32;35.96;97018.13;5067404;28;19920;-89
2023/04/25 00:18:55;;;;;;;;;;;;;;;23.75;35.17;97009.75;5071894;28;19925;-90
2023/04/25 00:21:24;;;;;;;;;;;;;;;23.90;35.51;97007.19;5053991;28;20063;-90
2023/04/25 00:23:50;;;;;;;;;;;;;;;23.43;35.66;97012.97;5063883;28;20058;-90
2023/04/25 00:26:16;;;;;;;;;;;;;;;23.46;35.90;97006.44;5072461;28;19924;-89
2023/04/25 00:28:42;;;;;;;;;;;;;;;24.52;33.82;97013.59;5071280;28;19927;-90
2023/04/25 00:31:08;;;;;;;;;;;;;;;24.87;33.76;97014.19;5092876;27;19920;-92
2023/04/25 00:33:34;;;;;;;;;;;;;;;24.23;34.66;97019.53;5068326;28;20387;-90
2023/04/25 00:36:00;;;;;;;;;;;;;;;24.79;33.94;97010.88;5066729;28;19920;-90
2023/04/25 00:38:26;;;;;;;;;;;;;;;24.96;33.66;97012.16;5072165;28;20327;-90
2023/04/25 00:40:52;;;;;;;;;;;;;;;24.17;35.36;97010.19;5073148;28;19925;-90
2023/04/25 00:43:18;;;;;;;;;;;;;;;23.93;35.50;97025.91;5069611;28;22256;-91
2023/04/25 00:45:46;;;;;;;;;;;;;;;24.36;34.27;97013.84;5060087;28;20371;-90
2023/04/25 00:48:14;;;;;;;;;;;;;;;24.33;35.03;97017.56;5057562;28;19974;-91
2023/04/25 00:50:40;;;;;;;;;;;;;;;24.87;33.50;97003.72;5072059;28;19927;-91
2023/04/25 00:53:06;;;;;;;;;;;;;;;25.01;32.79;97005.94;5066275;28;20034;-89
2023/04/25 00:55:34;;;;;;;;;;;;;;;24.94;33.07;97005.44;5060591;28;20012;-90
2023/04/25 00:58:00;;;;;;;;;;;;;;;25.48;32.37;97004.72;5072219;28;19971;-91
2023/04/25 01:00:26;;;;;;;;;;;;;;;25.27;33.42;97012.84;5071535;28;19920;-90
2023/04/25 01:02:52;;;;;;;;;;;;;;;24.94;33.53;97019.50;5071858;28;20011;-90
2023/04/25 01:05:18;;;;;;;;;;;;;;;24.78;33.76;97019.78;5070581;28;19921;-92
2023/04/25 01:07:45;;;;;;;;;;;;;;;24.95;33.24;97015.44;5082655;28;19916;-91
2023/04/25 01:10:11;;;;;;;;;;;;;;;24.81;33.57;97022.41;5075053;28;19920;-92
2023/04/25 01:12:37;;;;;;;;;;;;;;;25.14;32.96;97015.00;5073702;28;19935;-91
2023/04/25 01:15:03;;;;;;;;;;;;;;;25.03;33.61;97023.09;5073783;28;19928;-91
2023/04/25 01:17:29;;;;;;;;;;;;;;;24.31;35.29;97039.69;5076470;28;19927;-90
2023/04/25 01:19:55;;;;;;;;;;;;;;;23.77;36.07;97023.31;5074907;28;19932;-92
2023/04/25 01:22:22;;;;;;;;;;;;;;;24.82;33.66;97020.41;5066776;28;19928;-93
2023/04/25 01:24:48;;;;;;;;;;;;;;;24.88;34.09;97019.31;5071978;28;20011;-93
2023/04/25 01:27:15;;;;;;;;;;;;;;;24.99;33.51;97027.31;5076653;28;19924;-93
2023/04/25 01:29:41;;;;;;;;;;;;;;;24.19;34.97;97021.72;5070343;28;20051;-93
2023/04/25 01:32:07;;;;;;;;;;;;;;;24.42;34.80;97026.00;5067904;28;20014;-94
2023/04/25 01:34:33;;;;;;;;;;;;;;;25.03;33.21;97016.69;5074785;28;19927;-93
2023/04/25 01:37:00;;;;;;;;;;;;;;;24.45;34.28;97027.91;5075589;28;20003;-94
2023/04/25 01:39:26;;;;;;;;;;;;;;;24.72;33.54;97025.97;5074708;28;19920;-95
2023/04/25 01:41:52;;;;;;;;;;;;;;;25.01;33.04;97025.59;5069990;28;20400;-93
2023/04/25 01:44:18;;;;;;;;;;;;;;;24.91;33.60;97032.44;5075093;28;19920;-93
2023/04/25 01:46:44;;;;;;;;;;;;;;;24.82;33.17;97026.00;5075566;28;19956;-94
2023/04/25 01:49:10;;;;;;;;;;;;;;;24.95;33.97;97023.88;5074129;28;20436;-93
2023/04/25 01:51:37;;;;;;;;;;;;;;;25.07;32.95;97034.16;5075617;28;19961;-94
2023/04/25 01:54:03;;;;;;;;;;;;;;;24.63;34.07;97039.19;5073454;28;19920;-92
2023/04/25 01:56:30;;;;;;;;;;;;;;;24.48;33.84;97043.81;5070895;28;19960;-96
2023/04/25 01:58:56;;;;;;;;;;;;;;;24.50;33.75;97033.69;5073698;28;19974;-95
2023/04/25 02:01:22;;;;;;;;;;;;;;;24.19;34.20;97037.75;5077008;28;19916;-95
2023/04/25 02:03:48;;;;;;;;;;;;;;;24.67;33.61;97037.78;5075032;28;19928;-95
2023/04/25 02:06:14;;;;;;;;;;;;;;;24.93;33.36;97032.75;5075687;28;19921;-96
2023/04/25 02:08:40;;;;;;;;;;;;;;;24.64;33.66;97035.91;5064882;28;19928;-95
2023/04/25 02:11:06;;;;;;;;;;;;;;;24.72;34.07;97034.38;5075886;28;19920;-94
2023/04/25 02:13:32;;;;;;;;;;;;;;;25.24;32.33;97029.84;5073325;28;19928;-95
2023/04/25 02:15:58;;;;;;;;;;;;;;;25.21;32.93;97039.97;5073928;28;20376;-94
2023/04/25 02:18:26;;;;;;;;;;;;;;;25.13;32.74;97033.09;5074308;28;20373;-94
2023/04/25 02:20:52;;;;;;;;;;;;;;;24.67;33.91;97031.41;5067999;28;19920;-93
2023/04/25 02:23:19;;;;;;;;;;;;;;;25.20;33.38;97030.00;5055808;28;20318;-93
2023/04/25 02:25:45;;;;;;;;;;;;;;;25.05;32.54;97034.66;5060244;28;19939;-93
2023/04/25 02:28:11;;;;;;;;;;;;;;;25.01;32.74;97041.66;5074860;28;19924;-93
2023/04/25 02:30:37;;;;;;;;;;;;;;;24.94;33.34;97031.50;5072392;28;19921;-93
2023/04/25 02:33:03;;;;;;;;;;;;;;;25.39;32.66;97033.59;5075849;28;19920;-93
2023/04/25 02:35:29;;;;;;;;;;;;;;;25.42;32.54;97030.63;5072746;28;19947;-93
2023/04/25 02:37:55;;;;;;;;;;;;;;;24.93;33.87;97034.75;5075800;28;19930;-92
2023/04/25 02:40:22;;;;;;;;;;;;;;;25.14;32.70;97034.66;5073088;28;19974;-91
2023/04/25 02:42:48;;;;;;;;;;;;;;;25.49;32.30;97032.34;5070909;28;19927;-90
2023/04/25 02:45:14;;;;;;;;;;;;;;;25.52;32.13;97030.63;5069814;28;19958;-89
2023/04/25 02:47:40;;;;;;;;;;;;;;;25.67;31.68;97032.34;5063940;28;20414;-90
2023/04/25 02:50:06;;;;;;;;;;;;;;;25.71;32.04;97035.78;5075083;28;19982;-90
2023/04/25 02:52:32;;;;;;;;;;;;;;;25.69;32.21;97031.88;5073928;28;19924;-90
2023/04/25 02:54:58;;;;;;;;;;;;;;;25.87;31.32;97026.22;5073034;28;19976;-91
2023/04/25 02:57:24;;;;;;;;;;;;;;;26.01;31.92;97037.63;5070873;28;19979;-90
2023/04/25 02:59:50;;;;;;;;;;;;;;;26.17;31.08;97025.25;5073869;28;20292;-90
2023/04/25 03:02:16;;;;;;;;;;;;;;;26.00;31.80;97029.63;5065750;28;19921;-90
2023/04/25 03:04:42;;;;;;;;;;;;;;;24.66;34.82;97032.66;5067418;28;19924;-90
2023/04/25 03:07:08;;;;;;;;;;;;;;;25.21;32.42;97031.53;5072909;28;19924;-89
2023/04/25 03:09:34;;;;;;;;;;;;;;;25.02;32.52;97021.53;5071118;28;19920;-89
2023/04/25 03:12:01;;;;;;;;;;;;;;;24.69;33.31;97026.88;5071431;28;19924;-89
2023/04/25 03:14:27;;;;;;;;;;;;;;;24.42;34.77;97029.59;5056496;28;19927;-90
2023/04/25 03:16:53;;;;;;;;;;;;;;;23.19;36.41;97039.78;5068604;28;19921;-89
2023/04/25 03:19:20;;;;;;;;;;;;;;;23.94;35.65;97030.28;5072241;28;20318;-91
2023/04/25 03:21:46;;;;;;;;;;;;;;;23.98;34.54;97033.72;5073217;28;19966;-91
2023/04/25 03:24:12;;;;;;;;;;;;;;;22.21;38.28;97043.81;5073449;28;20276;-92
2023/04/25 03:26:38;;;;;;;;;;;;;;;23.15;37.08;97037.09;5066463;28;19951;-92
2023/04/25 03:29:04;;;;;;;;;;;;;;;23.30;36.66;97040.19;5063729;28;19916;-92
2023/04/25 03:31:30;;;;;;;;;;;;;;;23.14;36.13;97037.56;5070478;28;19920;-91
2023/04/25 03:33:56;;;;;;;;;;;;;;;23.76;34.97;97047.75;5071583;28;20004;-91
2023/04/25 03:36:22;;;;;;;;;;;;;;;23.40;35.53;97061.50;5071605;28;20343;-92
2023/04/25 03:38:48;;;;;;;;;;;;;;;23.41;35.63;97059.47;5067895;28;19925;-91
2023/04/25 03:41:14;;;;;;;;;;;;;;;23.60;35.20;97059.16;5070877;28;19985;-92
2023/04/25 03:43:40;;;;;;;;;;;;;;;22.65;36.61;97066.00;5076032;28;20034;-91
2023/04/25 03:46:06;;;;;;;;;;;;;;;23.15;35.20;97069.94;5071439;28;19962;-92
2023/04/25 03:48:32;;;;;;;;;;;;;;;23.32;34.53;97072.13;5071658;28;20003;-90
2023/04/25 03:50:58;;;;;;;;;;;;;;;23.24;35.18;97070.78;5073274;28;19981;-89
2023/04/25 03:53:25;;;;;;;;;;;;;;;23.33;35.06;97078.50;5073032;28;19927;-90
2023/04/25 03:59:24;;;;;;;;;;;;;;;22.79;36.20;97083.53;5045927;28;19970;-90
2023/04/25 04:01:50;;;;;;;;;;;;;;;23.06;35.76;97087.41;5071046;28;20003;-92
2023/04/25 04:04:17;;;;;;;;;;;;;;;22.49;36.63;97082.88;5061308;28;19921;-91
2023/04/25 04:06:43;;;;;;;;;;;;;;;22.73;36.51;97088.94;5053804;28;19917;-92
2023/04/25 04:09:10;;;;;;;;;;;;;;;23.59;34.97;97094.03;5072394;28;19927;-92
2023/04/25 04:11:38;;;;;;;;;;;;;;;23.31;35.77;97097.78;5075590;28;19921;-93
2023/04/25 04:14:05;;;;;;;;;;;;;;;23.73;34.36;97101.94;5071652;28;19943;-92
2023/04/25 04:16:31;;;;;;;;;;;;;;;23.96;34.00;97103.50;5059030;28;20007;-95
2023/04/25 04:18:57;;;;;;;;;;;;;;;23.85;33.72;97100.31;5057551;28;20407;-96
2023/04/25 04:21:23;;;;;;;;;;;;;;;23.43;34.12;97108.22;5055975;28;19958;-94
2023/04/25 04:23:49;;;;;;;;;;;;;;;23.45;34.22;97104.94;5060331;28;19927;-95
2023/04/25 04:26:16;;;;;;;;;;;;;;;23.63;34.10;97114.28;5075244;28;19935;-93
2023/04/25 04:28:43;;;;;;;;;;;;;;;23.86;33.99;97115.88;5078421;28;19920;-96
2023/04/25 04:31:10;;;;;;;;;;;;;;;24.45;32.80;97114.88;5066765;28;19923;-95
2023/04/25 04:33:36;;;;;;;;;;;;;;;24.43;32.88;97125.78;5069335;28;20387;-95
2023/04/25 04:36:03;;;;;;;;;;;;;;;24.51;32.01;97118.66;5068461;28;19927;-94
2023/04/25 04:38:29;;;;;;;;;;;;;;;24.05;32.83;97123.19;5070929;28;19975;-92
2023/04/25 04:40:55;;;;;;;;;;;;;;;24.01;32.52;97117.69;5068618;28;19931;-93
2023/04/25 04:43:22;;;;;;;;;;;;;;;23.91;32.69;97118.09;5067188;28;19920;-91
2023/04/25 04:45:49;;;;;;;;;;;;;;;24.02;33.28;97119.28;5074419;28;19920;-91
2023/04/25 04:48:16;;;;;;;;;;;;;;;24.00;33.31;97113.34;5083333;28;19924;-92
2023/04/25 04:50:45;;;;;;;;;;;;;;;24.03;32.67;97125.66;5082324;28;19925;-89
2023/04/25 04:53:11;;;;;;;;;;;;;;;23.95;33.12;97130.75;5073353;28;20015;-90
2023/04/25 04:55:37;;;;;;;;;;;;;;;24.27;32.32;97120.41;5074669;28;19916;-90
2023/04/25 04:58:03;;;;;;;;;;;;;;;24.06;32.91;97127.59;5066070;28;20339;-93
2023/04/25 05:00:29;;;;;;;;;;;;;;;23.39;33.21;97118.75;5073384;28;19927;-92
2023/04/25 05:02:56;;;;;;;;;;;;;;;22.84;34.52;97130.56;5069613;28;19960;-92
2023/04/25 05:05:22;;;;;;;;;;;;;;;22.06;35.75;97121.72;5077280;28;19928;-93
2023/04/25 05:07:48;;;;;;;;;;;;;;;22.32;36.85;97133.75;5067106;28;19920;-91
2023/04/25 05:10:14;;;;;;;;;;;;;;;23.44;33.72;97134.97;5076804;28;20387;-91
2023/04/25 05:12:40;;;;;;;;;;;;;;;23.95;32.67;97129.97;5074646;28;19921;-91
2023/04/25 05:15:06;;;;;;;;;;;;;;;24.10;32.67;97138.66;5076545;28;19917;-91
2023/04/25 05:17:32;;;;;;;;;;;;;;;23.97;32.46;97138.69;5077385;28;19924;-92
2023/04/25 05:19:58;;;;;;;;;;;;;;;24.34;32.24;97137.72;5077379;28;20296;-91
2023/04/25 05:22:24;;;;;;;;;;;;;;;24.40;31.58;97146.34;5076043;28;19920;-91
2023/04/25 05:24:51;;;;;;;;;;;;;;;24.61;31.64;97143.50;5077215;28;20295;-91
2023/04/25 05:27:17;;;;;;;;;;;;;;;23.94;32.71;97151.59;5077041;28;19963;-91
2023/04/25 05:29:44;;;;;;;;;;;;;;;23.52;33.19;97139.13;5077305;28;19916;-91
2023/04/25 05:32:10;;;;;;;;;;;;;;;23.55;32.94;97143.78;5077198;28;19917;-91
2023/04/25 05:34:36;;;;;;;;;;;;;;;23.75;32.87;97154.72;5075204;28;19955;-92
2023/04/25 05:37:02;;;;;;;;;;;;;;;23.97;32.12;97149.91;5066210;28;19970;-91
2023/04/25 05:39:28;;;;;;;;;;;;;;;24.18;32.65;97151.19;5075351;28;19916;-92
2023/04/25 05:41:55;;;;;;;;;;;;;;;24.36;31.63;97154.13;5075794;28;19962;-91
2023/04/25 05:44:21;;;;;;;;;;;;;;;24.18;32.66;97149.16;5075540;28;19923;-92
2023/04/25 05:46:47;;;;;;;;;;;;;;;24.07;32.00;97148.78;5073988;28;19927;-92
2023/04/25 05:49:13;;;;;;;;;;;;;;;24.26;32.37;97158.09;5075409;28;20133;-91
2023/04/25 05:51:39;;;;;;;;;;;;;;;24.73;31.77;97155.88;5075341;28;20435;-92
2023/04/25 05:54:05;;;;;;;;;;;;;;;23.55;33.13;97162.66;5071240;28;20336;-91
2023/04/25 05:56:31;;;;;;;;;;;;;;;23.60;33.06;97160.03;5074490;28;19996;-90
2023/04/25 05:58:57;;;;;;;;;;;;;;;23.26;34.52;97171.97;5074250;28;20003;-91
2023/04/25 06:01:23;;;;;;;;;;;;;;;23.65;33.16;97172.69;5074714;28;19928;-92
2023/04/25 06:03:49;;;;;;;;;;;;;;;23.88;32.91;97167.44;5076474;28;20383;-90
2023/04/25 06:06:15;;;;;;;;;;;;;;;23.76;31.83;97173.88;5074458;28;20411;-91
2023/04/25 06:08:41;;;;;;;;;;;;;;;23.85;32.75;97171.16;5073875;28;19920;-91
2023/04/25 06:11:07;;;;;;;;;;;;;;;24.07;31.69;97170.41;5071512;28;19921;-91
2023/04/25 06:13:33;;;;;;;;;;;;;;;24.08;31.51;97169.97;5075424;28;19920;-91
2023/04/25 06:15:59;;;;;;;;;;;;;;;23.62;33.51;97168.75;5075095;28;19916;-93
2023/04/25 06:18:25;;;;;;;;;;;;;;;24.08;32.36;97178.41;5076365;28;19920;-92
2023/04/25 06:20:51;;;;;;;;;;;;;;;24.25;31.88;97179.00;5089789;28;19923;-92
2023/04/25 06:23:17;;;;;;;;;;;;;;;24.26;32.68;97174.94;5075364;28;20015;-93
2023/04/25 06:25:43;;;;;;;;;;;;;;;24.41;31.98;97178.78;5074987;28;19920;-93
2023/04/25 06:28:09;;;;;;;;;;;;;;;24.23;32.55;97185.03;5075562;28;19924;-93
2023/04/25 06:30:35;;;;;;;;;;;;;;;24.24;31.29;97181.00;5075124;28;20024;-90
2023/04/25 06:33:01;;;;;;;;;;;;;;;23.98;32.58;97176.72;5064730;28;19921;-90
2023/04/25 06:35:27;;;;;;;;;;;;;;;24.28;32.19;97183.66;5058384;28;20007;-90
2023/04/25 06:37:53;;;;;;;;;;;;;;;24.38;32.92;97185.31;5055418;28;19926;-90
2023/04/25 06:40:19;;;;;;;;;;;;;;;24.17;32.48;97183.28;5056598;28;19921;-89
2023/04/25 06:42:45;;;;;;;;;;;;;;;23.92;32.21;97182.13;5063267;28;20411;-90
2023/04/25 06:45:11;;;;;;;;;;;;;;;23.89;33.77;97194.25;5055451;28;19917;-90
2023/04/25 06:47:37;;;;;;;;;;;;;;;23.96;33.59;97193.22;5075082;28;19920;-91
2023/04/25 06:50:04;;;;;;;;;;;;;;;23.87;31.71;97191.13;5073850;28;19920;-89
2023/04/25 06:52:30;;;;;;;;;;;;;;;24.38;31.82;97191.72;5075019;28;19916;-89
2023/04/25 06:54:56;;;;;;;;;;;;;;;24.35;32.77;97181.38;5075377;28;19920;-89
2023/04/25 06:57:22;;;;;;;;;;;;;;;24.83;31.55;97187.63;5075245;28;19924;-89
2023/04/25 06:59:48;;;;;;;;;;;;;;;24.85;32.56;97179.53;5074740;28;20283;-89
2023/04/25 07:02:14;;;;;;;;;;;;;;;24.00;33.30;97180.63;5073228;28;19928;-89
2023/04/25 07:04:40;;;;;;;;;;;;;;;23.93;33.88;97189.28;5075123;28;19922;-90
2023/04/25 07:07:06;;;;;;;;;;;;;;;24.05;34.27;97184.88;5074872;28;19920;-90
2023/04/25 07:09:33;;;;;;;;;;;;;;;24.62;32.99;97186.41;5074742;28;19917;-90
2023/04/25 07:12:01;;;;;;;;;;;;;;;23.85;33.80;97185.16;5074990;28;19912;-90
2023/04/25 07:14:27;;;;;;;;;;;;;;;23.77;32.38;97175.47;5074626;28;19916;-89
2023/04/25 07:16:55;;;;;;;;;;;;;;;23.92;33.63;97182.13;5074248;28;19919;-89
2023/04/25 07:19:21;;;;;;;;;;;;;;;23.14;35.89;97188.78;5074332;28;19922;-88
2023/04/25 07:21:47;;;;;;;;;;;;;;;22.78;35.77;97189.09;5072925;28;19916;-88
2023/04/25 07:24:13;;;;;;;;;;;;;;;23.66;33.94;97189.06;5072736;28;19927;-88
2023/04/25 07:26:39;;;;;;;;;;;;;;;24.56;33.25;97185.41;5076112;28;20281;-87
2023/04/25 07:29:05;;;;;;;;;;;;;;;23.62;33.77;97196.03;5073107;28;20315;-88
2023/04/25 07:31:31;;;;;;;;;;;;;;;24.40;32.71;97180.00;5073443;28;19939;-87
2023/04/25 07:33:57;;;;;;;;;;;;;;;25.30;29.87;97188.91;5063975;28;20376;-88
2023/04/25 07:36:23;;;;;;;;;;;;;;;23.96;32.01;97184.81;5054283;28;19972;-88
2023/04/25 07:38:49;;;;;;;;;;;;;;;23.66;31.81;97183.47;5054032;28;19924;-87
2023/04/25 07:41:15;;;;;;;;;;;;;;;24.24;31.36;97188.63;5061074;28;19921;-87
2023/04/25 07:43:41;;;;;;;;;;;;;;;24.41;31.78;97185.16;5074149;28;19917;-87
2023/04/25 07:46:07;;;;;;;;;;;;;;;24.98;31.33;97177.38;5074043;28;19923;-88
2023/04/25 07:48:33;;;;;;;;;;;;;;;24.18;32.39;97193.28;5073233;28;19920;-87
2023/04/25 07:50:59;;;;;;;;;;;;;;;23.86;33.61;97195.16;5073852;28;19967;-88
2023/04/25 07:53:26;;;;;;;;;;;;;;;24.90;30.85;97188.09;5073777;28;19920;-87
2023/04/25 07:55:52;;;;;;;;;;;;;;;22.91;37.20;97194.72;5073768;28;19923;-87
2023/04/25 07:58:21;;;;;;;;;;;;;;;23.66;33.89;97189.06;5074014;28;19956;-88
2023/04/25 08:00:48;;;;;;;;;;;;;;;23.01;35.60;97191.56;5073740;28;19963;-87
2023/04/25 08:03:14;;;;;;;;;;;;;;;23.71;31.42;97182.09;5072790;28;20294;-88
2023/04/25 08:05:40;;;;;;;;;;;;;;;24.33;32.08;97188.69;5073538;28;20019;-88
2023/04/25 08:08:06;;;;;;;;;;;;;;;24.18;32.21;97187.66;5073540;28;20373;-88
2023/04/25 08:10:32;;;;;;;;;;;;;;;23.48;36.21;97188.84;5072540;28;19966;-88
2023/04/25 08:12:59;;;;;;;;;;;;;;;21.96;39.42;97195.50;5073367;28;19916;-88
2023/04/25 08:15:26;;;;;;;;;;;;;;;24.30;33.06;97198.81;5059558;28;19917;-89
2023/04/25 08:17:52;;;;;;;;;;;;;;;24.67;31.63;97191.41;5071369;28;20380;-88
2023/04/25 08:20:18;;;;;;;;;;;;;;;23.40;32.67;97186.75;5073460;28;20020;-87
2023/04/25 08:22:44;;;;;;;;;;;;;;;24.73;33.24;97169.91;5072038;28;20015;-88
2023/04/25 08:25:10;;;;;;;;;;;;;;;24.33;34.31;97189.47;5072076;28;19919;-88
2023/04/25 08:27:36;;;;;;;;;;;;;;;25.25;31.73;97188.75;5073216;28;19929;-88
2023/04/25 08:30:03;;;;;;;;;;;;;;;25.08;32.18;97181.81;5071475;28;19946;-88
2023/04/25 08:32:29;;;;;;;;;;;;;;;25.97;31.02;97179.69;5064491;28;19917;-88
2023/04/25 08:34:55;;;;;;;;;;;;;;;24.91;30.71;97186.88;5053451;28;19944;-87
2023/04/25 08:37:21;;;;;;;;;;;;;;;24.41;34.53;97196.38;5053496;28;20003;-88
2023/04/25 08:39:53;;;;;;;;;;;;;;;25.06;31.48;97190.69;5056412;28;19924;-88
2023/04/25 08:42:19;;;;;;;;;;;;;;;25.59;29.40;97188.53;5072493;28;19920;-88
2023/04/25 08:44:46;;;;;;;;;;;;;;;25.99;27.93;97182.81;5073323;28;19916;-88
2023/04/25 08:47:12;;;;;;;;;;;;;;;25.62;28.04;97182.00;5073267;28;19916;-88
2023/04/25 08:49:39;;;;;;;;;;;;;;;25.51;30.09;97181.63;5072192;28;20010;-88
2023/04/25 08:52:10;;;;;;;;;;;;;;;25.83;29.97;97186.72;5072646;28;20360;-88
2023/04/25 08:54:36;;;;;;;;;;;;;;;25.97;29.49;97188.13;5075270;28;19939;-86
2023/04/25 08:57:03;;;;;;;;;;;;;;;26.01;29.35;97189.53;5074780;28;19925;-87
2023/04/25 08:59:30;;;;;;;;;;;;;;;25.68;29.56;97187.75;5073009;28;21887;-86
2023/04/25 09:01:57;;;;;;;;;;;;;;;25.75;28.82;97188.25;5073090;28;19920;-86
2023/04/25 09:04:23;;;;;;;;;;;;;;;26.22;26.54;97181.41;5073179;28;19920;-86
2023/04/25 09:06:49;;;;;;;;;;;;;;;25.81;28.30;97191.22;5072475;28;19916;-85
2023/04/25 09:09:15;;;;;;;;;;;;;;;25.59;28.10;97199.78;5061118;28;20455;-86
2023/04/25 09:11:41;;;;;;;;;;;;;;;25.52;28.57;97200.06;5053190;28;19970;-86
2023/04/25 09:14:10;;;;;;;;;;;;;;;25.16;28.89;97205.53;5059209;28;20328;-85
2023/04/25 09:16:56;;;;;;;;;;;;;;;25.36;28.25;97208.75;5073020;28;19916;-85
2023/04/25 09:19:26;;;;;;;;;;;;;;;25.01;28.09;97210.16;5072772;28;20287;-85
2023/04/25 09:22:00;;;;;;;;;;;;;;;24.55;29.41;97217.53;5072314;28;19916;-85
2023/04/25 09:24:36;;;;;;;;;;;;;;;24.65;28.73;97216.34;5073145;28;19977;-85
2023/04/25 09:27:22;;;;;;;;;;;;;;;25.39;27.38;97221.88;5076726;28;19970;-85
2023/04/25 09:29:55;;;;;;;;;;;;;;;24.74;27.58;97222.00;5076599;28;19966;-84
2023/04/25 09:32:23;;;;;;;;;;;;;;;24.54;31.06;97224.38;5068614;28;19917;-85
2023/04/25 09:34:53;;;;;;;;;;;;;;;25.35;26.73;97215.59;5056341;28;19921;-84
2023/04/25 09:37:20;;;;;;;;;;;;;;;25.64;29.19;97215.25;5056646;28;20023;-85
2023/04/25 09:39:47;;;;;;;;;;;;;;;25.94;26.66;97214.34;5059429;28;19928;-84
2023/04/25 09:42:15;;;;;;;;;;;;;;;25.20;29.22;97203.38;5076488;28;19916;-84
2023/04/25 09:44:42;;;;;;;;;;;;;;;25.74;27.28;97200.72;5076121;28;19917;-85
2023/04/25 09:47:10;;;;;;;;;;;;;;;26.11;29.24;97195.19;5075041;28;19916;-85
2023/04/25 09:49:38;;;;;;;;;;;;;;;26.12;27.68;97208.75;5075661;28;20463;-85
2023/04/25 09:52:04;;;;;;;;;;;;;;;25.99;28.18;97202.50;5076230;28;20011;-87
2023/04/25 09:54:30;;;;;;;;;;;;;;;24.05;32.05;97213.72;5076186;28;19917;-87
2023/04/25 09:56:58;;;;;;;;;;;;;;;24.99;27.76;97212.66;5076241;28;19920;-87
2023/04/25 09:59:24;;;;;;;;;;;;;;;25.17;27.40;97201.50;5075822;28;19920;-88
2023/04/25 10:01:52;;;;;;;;;;;;;;;24.13;33.94;97205.06;5075830;28;19921;-86
2023/04/25 10:04:20;;;;;;;;;;;;;;;23.84;32.02;97213.66;5074569;28;20392;-86
2023/04/25 10:06:49;;;;;;;;;;;;;;;23.24;33.06;97208.03;5075931;28;20018;-87
2023/04/25 10:09:15;;;;;;;;;;;;;;;23.29;33.18;97210.25;5074918;28;19920;-87
2023/04/25 10:11:42;;;;;;;;;;;;;;;23.44;34.45;97202.22;5075888;28;20020;-87
2023/04/25 10:14:08;;;;;;;;;;;;;;;24.51;31.35;97200.81;5069007;28;19917;-87
2023/04/25 10:16:35;;;;;;;;;;;;;;;23.41;32.24;97202.34;5055776;28;19917;-87
2023/04/25 10:19:02;;;;;;;;;;;;;;;23.03;33.19;97202.34;5055833;28;19917;-87
2023/04/25 10:21:31;;;;;;;;;;;;;;;23.08;38.31;97198.97;5056559;28;20280;-88
2023/04/25 10:23:57;;;;;;;;;;;;;;;22.25;37.03;97206.66;5063631;28;19931;-88
2023/04/25 10:26:24;;;;;;;;;;;;;;;24.21;27.70;97197.94;5074819;28;20399;-88
2023/04/25 10:29:03;;;;;;;;;;;;;;;25.44;25.73;97193.16;5074287;28;20001;-88
2023/04/25 10:31:30;;;;;;;;;;;;;;;25.96;27.59;97192.97;5061793;28;20388;-87
2023/04/25 10:33:56;;;;;;;;;;;;;;;26.18;27.07;97189.25;5075659;28;19920;-87
2023/04/25 10:36:24;;;;;;;;;;;;;;;25.17;29.53;97191.03;5075063;28;19923;-87
2023/04/25 10:38:50;;;;;;;;;;;;;;;25.54;28.84;97193.97;5074912;28;19920;-88
2023/04/25 10:41:21;;;;;;;;;;;;;;;23.85;33.26;97195.63;5074279;28;20517;-87
2023/04/25 10:43:48;;;;;;;;;;;;;;;23.93;31.41;97194.91;5075457;28;20295;-88
2023/04/25 10:46:14;;;;;;;;;;;;;;;25.00;31.73;97186.13;5075187;28;19924;-87
2023/04/25 10:48:45;;;;;;;;;;;;;;;26.51;30.63;97178.88;5075095;28;19920;-87
2023/04/25 10:51:15;;;;;;;;;;;;;;;27.60;28.32;97176.44;5075190;28;19924;-87
2023/04/25 10:53:43;;;;;;;;;;;;;;;26.68;28.12;97169.59;5075001;28;20404;-86
2023/04/25 10:56:29;;;;;;;;;;;;;;;25.00;33.40;97172.88;5073837;28;19991;-87
2023/04/25 10:59:06;;;;;;;;;;;;;;;24.07;33.98;97185.22;5074846;28;19916;-84
2023/04/25 11:01:39;;;;;;;;;;;;;;;25.38;30.28;97176.13;5074628;28;20372;-84
2023/04/25 11:04:05;;;;;;;;;;;;;;;25.74;28.73;97175.44;5074624;28;20291;-84
2023/04/25 11:06:54;;;;;;;;;;;;;;;26.88;26.01;97168.31;5075035;28;19924;-85
2023/04/25 11:09:23;;;;;;;;;;;;;;;27.52;26.48;97163.97;5062783;28;20376;-85
2023/04/25 11:11:56;;;;;;;;;;;;;;;27.49;25.86;97164.94;5074523;28;20276;-85
2023/04/25 11:14:22;;;;;;;;;;;;;;;27.61;26.02;97163.13;5074566;28;19917;-85
2023/04/25 11:16:57;;;;;;;;;;;;;;;28.11;27.92;97169.81;5072966;28;19921;-85
2023/04/25 11:19:24;;;;;;;;;;;;;;;28.24;26.42;97167.53;5074426;28;19917;-85
2023/04/25 11:21:50;;;;;;;;;;;;;;;28.60;26.77;97167.97;5073846;28;20012;-85
2023/04/25 11:24:17;;;;;;;;;;;;;;;28.90;26.82;97167.94;5072833;28;19920;-85
2023/04/25 11:26:43;;;;;;;;;;;;;;;28.55;24.28;97165.78;5071541;28;19928;-85
2023/04/25 11:29:09;;;;;;;;;;;;;;;28.29;24.65;97164.00;5058950;28;19921;-85
2023/04/25 11:31:35;;;;;;;;;;;;;;;27.99;24.56;97166.00;5070658;28;19916;-86
2023/04/25 11:34:02;;;;;;;;;;;;;;;27.58;23.82;97162.06;5074548;28;19927;-85
2023/04/25 11:36:28;;;;;;;;;;;;;;;26.77;26.83;97177.25;5074136;28;19916;-85
2023/04/25 11:38:54;;;;;;;;;;;;;;;26.49;25.06;97168.06;5073416;28;19916;-85
2023/04/25 11:41:21;;;;;;;;;;;;;;;26.58;24.00;97173.69;5072141;28;20383;-86
2023/04/25 11:43:48;;;;;;;;;;;;;;;26.43;25.13;97169.97;5059345;28;19916;-86
2023/04/25 11:46:15;;;;;;;;;;;;;;;26.77;25.48;97174.44;5069046;28;19924;-85
2023/04/25 11:48:41;;;;;;;;;;;;;;;26.75;25.42;97165.69;5072786;28;19923;-86
2023/04/25 11:51:07;;;;;;;;;;;;;;;26.87;25.62;97172.38;5067803;28;19920;-85
2023/04/25 11:53:33;;;;;;;;;;;;;;;27.11;25.50;97167.59;5072181;28;19916;-85
2023/04/25 11:56:00;;;;;;;;;;;;;;;27.23;24.90;97172.25;5072589;28;20420;-85
2023/04/25 11:58:26;;;;;;;;;;;;;;;27.16;25.95;97176.19;5069426;28;20019;-85
2023/04/25 12:00:52;;;;;;;;;;;;;;;27.15;25.70;97176.66;5071097;28;20380;-85
2023/04/25 12:03:19;;;;;;;;;;;;;;;27.00;24.64;97185.00;5071078;28;20033;-85
2023/04/25 12:05:45;;;;;;;;;;;;;;;26.76;26.77;97183.38;5071755;28;19931;-86
2023/04/25 12:08:17;;;;;;;;;;;;;;;27.23;26.09;97178.66;5070507;28;19923;-85
2023/04/25 12:10:45;;;;;;;;;;;;;;;27.24;27.19;97180.22;5068275;28;19928;-85
2023/04/25 12:13:21;;;;;;;;;;;;;;;27.24;25.78;97174.56;5102689;28;19927;-85
2023/04/25 12:15:47;;;;;;;;;;;;;;;27.32;26.15;97177.84;5069418;28;19923;-86
2023/04/25 12:18:13;;;;;;;;;;;;;;;26.63;25.93;97183.53;5073050;28;20100;-86
2023/04/25 12:20:41;;;;;;;;;;;;;;;26.26;27.84;97184.84;5061477;28;19929;-86
2023/04/25 12:23:11;;;;;;;;;;;;;;;26.68;28.61;97183.69;5071837;28;19921;-86
2023/04/25 12:25:38;;;;;;;;;;;;;;;27.19;28.26;97177.28;5073570;28;19917;-86
2023/04/25 12:28:14;;;;;;;;;;;;;;;27.50;26.92;97180.56;5056149;28;19970;-87
2023/04/25 12:30:53;;;;;;;;;;;;;;;27.55;27.34;97181.97;5053420;28;19917;-86
2023/04/25 12:33:19;;;;;;;;;;;;;;;27.33;27.04;97193.47;5056467;28;19925;-86
2023/04/25 12:35:45;;;;;;;;;;;;;;;27.24;28.12;97191.50;5069721;28;20004;-86
2023/04/25 12:38:11;;;;;;;;;;;;;;;27.20;29.31;97190.09;5072369;28;19927;-86
2023/04/25 12:40:37;;;;;;;;;;;;;;;27.53;29.27;97193.72;5073386;28;19916;-86
2023/04/25 12:43:03;;;;;;;;;;;;;;;27.59;25.17;97196.66;5072811;28;20300;-85
2023/04/25 12:45:29;;;;;;;;;;;;;;;26.68;27.52;97196.97;5073250;28;19916;-85
2023/04/25 12:47:55;;;;;;;;;;;;;;;26.56;28.10;97189.47;5073400;28;19917;-85
2023/04/25 12:50:21;;;;;;;;;;;;;;;25.96;28.83;97189.34;5071937;28;19920;-85